createdAt,value
2023-05-10T00:03:52.139Z,12.05
2023-05-10T00:08:45.706Z,11.98
2023-05-10T00:13:38.373Z,11.94
2023-05-10T00:18:31.248Z,11.97
2023-05-10T00:23:21.302Z,11.87
2023-05-10T00:28:11.392Z,11.93
2023-05-10T00:33:01.659Z,11.96
2023-05-10T00:37:54.312Z,11.98
2023-05-10T00:42:47.659Z,11.76
2023-05-10T00:47:38.282Z,11.94
2023-05-10T00:52:30.308Z,11.90
2023-05-10T00:57:25.628Z,11.90
2023-05-10T01:02:16.370Z,11.84
2023-05-10T01:07:07.775Z,11.83
2023-05-10T01:11:59.345Z,11.92
2023-05-10T01:16:53.428Z,11.90
2023-05-10T01:21:51.472Z,11.99
2023-05-10T01:27:10.610Z,11.99
2023-05-10T01:32:30.433Z,11.90
2023-05-10T01:37:29.798Z,11.92
2023-05-10T01:42:25.050Z,11.84
2023-05-10T01:47:24.557Z,11.74
2023-05-10T01:52:20.416Z,11.95
2023-05-10T01:57:13.516Z,11.85
2023-05-10T02:02:07.247Z,11.85
2023-05-10T02:07:01.265Z,11.97
2023-05-10T02:11:52.956Z,12.05
2023-05-10T02:16:44.436Z,12.11
2023-05-10T02:21:35.657Z,12.07
2023-05-10T02:26:30.926Z,12.13
2023-05-10T02:31:25.392Z,12.14
2023-05-10T02:36:17.812Z,12.00
2023-05-10T02:41:09.970Z,12.12
2023-05-10T02:46:03.260Z,12.14
2023-05-10T02:50:56.528Z,12.12
2023-05-10T02:55:52.830Z,12.16
2023-05-10T03:00:46.396Z,12.06
2023-05-10T03:05:39.157Z,12.11
2023-05-10T03:10:33.357Z,12.10
2023-05-10T03:15:34.589Z,12.04
2023-05-10T03:20:32.133Z,11.86
2023-05-10T03:25:26.814Z,12.04
2023-05-10T03:30:18.780Z,12.01
2023-05-10T03:35:11.442Z,11.97
2023-05-10T03:40:03.357Z,11.92
2023-05-10T03:45:01.578Z,11.82
2023-05-10T03:49:54.424Z,11.90
2023-05-10T03:54:44.461Z,11.90
2023-05-10T03:59:34.888Z,11.88
2023-05-10T04:04:27.762Z,11.95
2023-05-10T04:09:18.313Z,11.93
2023-05-10T04:14:08.339Z,11.95
2023-05-10T04:18:58.858Z,12.00
2023-05-10T04:23:51.604Z,11.89
2023-05-10T04:28:43.945Z,11.98
2023-05-10T04:33:35.249Z,11.98
2023-05-10T04:38:25.854Z,11.95
2023-05-10T04:43:18.835Z,11.90
2023-05-10T04:48:09.510Z,11.82
2023-05-10T04:52:59.362Z,11.81
2023-05-10T04:57:49.204Z,11.83
2023-05-10T05:02:43.461Z,11.73
2023-05-10T05:07:39.024Z,11.73
2023-05-10T05:12:38.783Z,11.70
2023-05-10T05:17:38.752Z,11.59
2023-05-10T05:22:37.398Z,11.70
2023-05-10T05:32:58.128Z,11.45
2023-05-10T05:37:50.590Z,11.54
2023-05-10T05:42:50.050Z,11.65
2023-05-10T05:47:46.718Z,11.57
2023-05-10T05:52:37.261Z,11.56
2023-05-10T05:57:32.732Z,11.58
2023-05-10T06:02:22.684Z,11.66
2023-05-10T06:07:12.941Z,11.61
2023-05-10T06:12:02.881Z,11.62
2023-05-10T06:16:55.736Z,11.55
2023-05-10T06:21:45.816Z,11.65
2023-05-10T06:26:35.763Z,11.70
2023-05-10T06:31:25.819Z,11.78
2023-05-10T06:36:20.476Z,11.79
2023-05-10T06:41:10.355Z,11.85
2023-05-10T06:46:00.340Z,11.85
2023-05-10T06:50:50.365Z,11.93
2023-05-10T06:55:42.904Z,11.86
2023-05-10T07:00:32.775Z,11.90
2023-05-10T07:05:23.476Z,11.91
2023-05-10T07:10:14.535Z,12.02
2023-05-10T07:15:08.424Z,12.06
2023-05-10T07:19:58.377Z,12.03
2023-05-10T07:24:48.445Z,11.95
2023-05-10T07:29:38.608Z,12.00
2023-05-10T07:34:31.783Z,12.05
2023-05-10T07:39:27.484Z,12.14
2023-05-10T07:44:19.762Z,12.25
2023-05-10T07:49:09.651Z,12.29
2023-05-10T07:54:03.695Z,12.32
2023-05-10T07:58:53.437Z,12.36
2023-05-10T08:03:43.387Z,12.44
2023-05-10T08:08:33.346Z,12.64
2023-05-10T08:13:27.009Z,12.71
2023-05-10T08:18:17.226Z,12.85
2023-05-10T08:23:07.329Z,13.23
2023-05-10T08:27:57.221Z,13.38
2023-05-10T08:33:05.895Z,13.66
2023-05-10T08:37:55.748Z,13.77
2023-05-10T08:42:51.802Z,13.74
2023-05-10T08:47:42.958Z,13.55
2023-05-10T08:52:41.895Z,13.53
2023-05-10T08:57:31.934Z,13.27
2023-05-10T09:02:23.431Z,13.21
2023-05-10T09:07:15.064Z,13.21
2023-05-10T09:12:08.610Z,13.33
2023-05-10T09:16:59.098Z,13.48
2023-05-10T09:21:48.947Z,13.55
2023-05-10T09:32:47.791Z,13.51
2023-05-10T09:37:37.650Z,13.58
2023-05-10T09:42:30.389Z,13.48
2023-05-10T09:47:21.700Z,13.36
2023-05-10T09:52:11.968Z,13.33
2023-05-10T09:57:01.964Z,13.58
2023-05-10T10:01:57.145Z,13.59
2023-05-10T10:06:51.538Z,13.48
2023-05-10T10:11:42.789Z,13.67
2023-05-10T10:16:33.934Z,13.65
2023-05-10T10:21:30.511Z,13.83
2023-05-10T10:26:24.848Z,13.87
2023-05-10T10:31:30.532Z,13.93
2023-05-10T10:36:28.378Z,14.13
2023-05-10T10:41:40.359Z,14.27
2023-05-10T10:46:30.627Z,14.56
2023-05-10T10:51:26.018Z,14.71
2023-05-10T10:56:19.647Z,14.82
2023-05-10T11:02:14.654Z,14.87
2023-05-10T11:07:22.344Z,14.79
2023-05-10T11:12:13.791Z,14.63
2023-05-10T11:17:26.206Z,14.54
2023-05-10T11:22:18.268Z,14.39
2023-05-10T11:27:08.510Z,14.39
2023-05-10T11:32:01.990Z,14.27
2023-05-10T11:36:55.651Z,14.27
2023-05-10T11:41:52.345Z,14.42
2023-05-10T11:47:30.877Z,14.54
2023-05-10T11:52:25.073Z,14.72
2023-05-10T11:59:30.679Z,14.92
2023-05-10T12:04:01.827Z,15.29
2023-05-10T12:32:48.300Z,15.80
2023-05-10T12:37:40.207Z,15.78
2023-05-10T12:42:30.453Z,15.80
2023-05-10T12:47:20.362Z,15.80
2023-05-10T12:52:14.325Z,15.63
2023-05-10T12:57:04.127Z,15.69
2023-05-10T13:01:54.048Z,15.62
2023-05-10T13:06:44.050Z,15.57
2023-05-10T13:11:36.581Z,15.73
2023-05-10T13:16:26.629Z,15.73
2023-05-10T13:21:17.795Z,16.04
2023-05-10T13:26:07.558Z,16.25
2023-05-10T13:31:01.221Z,16.27
2023-05-10T13:35:51.040Z,16.31
2023-05-10T13:40:40.861Z,16.54
2023-05-10T13:45:30.834Z,16.75
2023-05-10T13:50:26.074Z,16.85
2023-05-10T13:55:17.110Z,16.80
2023-05-10T14:00:08.945Z,16.88
2023-05-10T14:04:59.510Z,16.84
2023-05-10T14:09:52.008Z,16.73
2023-05-10T14:14:45.461Z,16.65
2023-05-10T14:19:35.941Z,16.43
2023-05-10T14:24:25.770Z,16.35
2023-05-10T14:29:18.613Z,16.29
2023-05-10T14:34:08.497Z,16.41
2023-05-10T14:38:58.328Z,16.56
2023-05-10T14:43:48.181Z,16.47
2023-05-10T14:48:40.664Z,16.13
2023-05-10T14:53:30.584Z,15.99
2023-05-10T14:58:22.665Z,15.87
2023-05-10T15:03:12.701Z,15.72
2023-05-10T15:08:08.414Z,15.53
2023-05-10T15:12:58.143Z,15.56
2023-05-10T15:17:49.201Z,15.53
2023-05-10T15:22:42.762Z,15.53
2023-05-10T15:27:37.535Z,15.44
2023-05-10T15:32:27.314Z,15.30
2023-05-10T15:37:17.123Z,15.27
2023-05-10T15:42:07.517Z,15.27
2023-05-10T15:47:00.114Z,15.16
2023-05-10T15:51:49.958Z,15.27
2023-05-10T15:56:40.270Z,15.24
2023-05-10T16:01:31.065Z,15.28
2023-05-10T16:06:26.226Z,15.22
2023-05-10T16:11:16.709Z,15.23
2023-05-10T16:16:09.186Z,15.26
2023-05-10T16:20:59.441Z,14.96
2023-05-10T16:25:51.844Z,14.99
2023-05-10T16:30:41.911Z,14.96
2023-05-10T16:35:32.482Z,14.78
2023-05-10T16:40:24.657Z,14.73
2023-05-10T16:45:17.503Z,14.69
2023-05-10T16:50:10.062Z,14.61
2023-05-10T16:54:59.976Z,14.46
2023-05-10T16:59:49.859Z,14.30
2023-05-10T17:04:42.241Z,14.16
2023-05-10T17:09:32.239Z,14.07
2023-05-10T17:14:22.277Z,13.95
2023-05-10T17:19:12.453Z,14.00
2023-05-10T17:24:07.430Z,13.88
2023-05-10T17:28:57.438Z,13.98
2023-05-10T17:33:47.191Z,13.97
2023-05-10T17:38:37.105Z,13.52
2023-05-10T17:43:30.953Z,13.97
2023-05-10T17:48:28.964Z,13.89
2023-05-10T17:53:20.819Z,14.13
2023-05-10T17:58:10.791Z,14.15
2023-05-10T18:03:03.415Z,14.13
2023-05-10T18:07:53.592Z,13.99
2023-05-10T18:12:43.665Z,13.98
2023-05-10T18:17:35.128Z,13.89
2023-05-10T18:22:28.054Z,13.95
2023-05-10T18:27:18.047Z,13.91
2023-05-10T18:32:10.051Z,13.81
2023-05-10T18:37:00.447Z,13.89
2023-05-10T18:41:53.174Z,13.87
2023-05-10T18:46:44.349Z,13.83
2023-05-10T18:51:36.677Z,13.68
2023-05-10T18:56:26.960Z,13.79
2023-05-10T19:01:19.840Z,13.78
2023-05-10T19:06:09.906Z,13.76
2023-05-10T19:10:59.977Z,13.70
2023-05-10T19:15:50.118Z,13.67
2023-05-10T19:20:44.731Z,13.31
2023-05-10T19:25:37.203Z,13.32
2023-05-10T19:30:27.307Z,13.49
2023-05-10T19:35:21.344Z,13.45
2023-05-10T19:40:16.014Z,13.35
2023-05-10T19:45:06.109Z,13.29
2023-05-10T19:49:58.828Z,13.28
2023-05-10T19:54:49.100Z,13.25
2023-05-10T19:59:43.549Z,13.23
2023-05-10T20:04:35.850Z,13.02
2023-05-10T20:09:25.925Z,12.78
2023-05-10T20:14:17.199Z,13.13
2023-05-10T20:19:09.959Z,13.14
2023-05-10T20:23:59.946Z,13.07
2023-05-10T20:28:51.365Z,13.09
2023-05-10T20:33:42.975Z,13.09
2023-05-10T20:38:35.454Z,12.94
2023-05-10T20:43:25.556Z,13.01
2023-05-10T20:48:16.174Z,13.06
2023-05-10T20:53:06.334Z,13.07
2023-05-10T20:57:58.778Z,12.88
2023-05-10T21:02:49.410Z,12.96
2023-05-10T21:07:39.623Z,12.98
2023-05-10T21:12:29.949Z,12.92
2023-05-10T21:17:24.268Z,12.81
2023-05-10T21:22:14.742Z,12.93
2023-05-10T21:27:05.175Z,12.95
2023-05-10T21:31:55.057Z,12.87
2023-05-10T21:36:47.676Z,12.91
2023-05-10T21:41:37.689Z,12.91
2023-05-10T21:46:28.709Z,12.92
2023-05-10T21:51:18.662Z,12.86
2023-05-10T21:56:11.177Z,12.95
2023-05-10T22:01:01.105Z,12.93
2023-05-10T22:05:51.654Z,12.94
2023-05-10T22:10:41.407Z,12.93
2023-05-10T22:15:36.315Z,12.73
2023-05-10T22:20:26.688Z,12.82
2023-05-10T22:25:17.853Z,12.82
2023-05-10T22:30:11.457Z,12.79
2023-05-10T22:35:04.496Z,12.84
2023-05-10T22:39:54.527Z,12.73
2023-05-10T22:44:45.372Z,12.83
2023-05-10T22:49:35.467Z,12.73
2023-05-10T22:54:28.157Z,12.76
2023-05-10T22:59:18.083Z,12.78
2023-05-10T23:04:08.382Z,12.69
2023-05-10T23:08:58.475Z,12.70
2023-05-10T23:13:51.096Z,12.66
2023-05-10T23:18:41.336Z,12.73
2023-05-10T23:23:32.928Z,12.64
2023-05-10T23:28:22.956Z,12.68
2023-05-10T23:33:15.698Z,12.58
2023-05-10T23:38:05.490Z,12.65
2023-05-10T23:42:55.536Z,12.59
2023-05-10T23:47:46.976Z,12.50
2023-05-10T23:52:39.960Z,12.57
2023-05-10T23:57:29.899Z,12.63
